createdAt,value
2023-03-19T00:02:52.451Z,99552.03
2023-03-19T00:07:54.159Z,99545.38
2023-03-19T00:12:55.812Z,99554.47
2023-03-19T00:17:57.607Z,99559.81
2023-03-19T00:22:59.379Z,99556.13
2023-03-19T00:28:01.032Z,99556.00
2023-03-19T00:33:02.943Z,99556.28
2023-03-19T00:38:04.783Z,99547.06
2023-03-19T00:43:07.080Z,99546.91
2023-03-19T00:48:08.735Z,99554.19
2023-03-19T00:53:10.508Z,99563.22
2023-03-19T00:58:12.453Z,99558.97
2023-03-19T01:03:14.275Z,99554.59
2023-03-19T01:08:17.184Z,99544.13
2023-03-19T01:13:19.098Z,99555.50
2023-03-19T01:18:20.838Z,99548.22
2023-03-19T01:23:22.512Z,99538.34
2023-03-19T01:28:24.506Z,99553.38
2023-03-19T01:33:26.486Z,99541.78
2023-03-19T01:38:33.174Z,99540.50
2023-03-19T01:43:39.138Z,99533.59
2023-03-19T01:49:02.833Z,99532.38
2023-03-19T01:54:08.465Z,99542.66
2023-03-19T01:59:28.031Z,99547.56
2023-03-19T02:04:54.257Z,99545.91
2023-03-19T02:09:56.688Z,99548.38
2023-03-19T02:14:58.564Z,99537.44
2023-03-19T02:20:26.014Z,99529.91
2023-03-19T02:25:36.621Z,99539.03
2023-03-19T02:30:38.748Z,99538.75
2023-03-19T02:35:47.263Z,99538.34
2023-03-19T02:41:10.196Z,99535.94
2023-03-19T02:46:14.084Z,99544.56
2023-03-19T02:51:16.257Z,99539.91
2023-03-19T02:56:18.292Z,99538.63
2023-03-19T03:01:19.926Z,99535.81
2023-03-19T03:06:21.658Z,99540.47
2023-03-19T03:11:23.257Z,99567.94
2023-03-19T03:16:25.466Z,99575.81
2023-03-19T03:21:27.178Z,99574.25
2023-03-19T03:26:29.103Z,99574.56
2023-03-19T03:31:30.743Z,99578.19
2023-03-19T03:36:32.522Z,99577.50
2023-03-19T03:41:34.263Z,99567.41
2023-03-19T03:46:37.795Z,99566.28
2023-03-19T03:51:39.422Z,99571.19
2023-03-19T03:56:41.113Z,99579.16
2023-03-19T04:01:43.279Z,99573.00
2023-03-19T04:06:45.005Z,99581.81
2023-03-19T04:12:03.062Z,99574.53
2023-03-19T04:17:05.276Z,99568.25
2023-03-19T04:22:08.566Z,99572.72
2023-03-19T04:27:10.261Z,99568.50
2023-03-19T04:32:13.671Z,99568.22
2023-03-19T04:37:15.409Z,99571.72
2023-03-19T04:42:23.631Z,99572.16
2023-03-19T04:47:48.497Z,99574.25
2023-03-19T04:52:50.627Z,99573.97
2023-03-19T04:57:53.003Z,99573.25
2023-03-19T05:02:58.130Z,99575.22
2023-03-19T05:08:00.025Z,99584.03
2023-03-19T05:13:02.444Z,99568.88
2023-03-19T05:18:05.292Z,99579.19
2023-03-19T05:23:15.155Z,99586.22
2023-03-19T05:28:28.620Z,99584.50
2023-03-19T05:33:30.744Z,99575.34
2023-03-19T05:38:32.449Z,99579.13
2023-03-19T05:43:40.019Z,99583.19
2023-03-19T05:48:46.911Z,99596.66
2023-03-19T05:53:48.665Z,99598.63
2023-03-19T05:59:22.371Z,99601.88
2023-03-19T06:04:37.010Z,99605.13
2023-03-19T06:09:38.771Z,99606.78
2023-03-19T06:14:40.805Z,99604.94
2023-03-19T06:20:01.275Z,99603.81
2023-03-19T06:25:03.026Z,99597.25
2023-03-19T06:30:07.591Z,99604.41
2023-03-19T06:35:10.404Z,99608.88
2023-03-19T06:40:12.502Z,99600.31
2023-03-19T06:45:16.561Z,99606.97
2023-03-19T06:50:18.347Z,99605.22
2023-03-19T06:55:20.643Z,99615.84
2023-03-19T07:00:22.683Z,99618.59
2023-03-19T07:05:24.343Z,99627.94
2023-03-19T07:10:25.993Z,99634.47
2023-03-19T07:15:27.582Z,99641.38
2023-03-19T07:20:29.339Z,99638.38
2023-03-19T07:25:31.373Z,99636.34
2023-03-19T07:30:33.166Z,99640.91
2023-03-19T07:35:35.037Z,99636.53
2023-03-19T07:40:37.091Z,99639.47
2023-03-19T07:45:38.740Z,99634.47
2023-03-19T07:50:40.377Z,99639.28
2023-03-19T07:55:41.980Z,99636.38
2023-03-19T08:00:44.999Z,99623.91
2023-03-19T08:05:48.950Z,99626.44
2023-03-19T08:10:52.982Z,99634.16
2023-03-19T08:15:56.426Z,99631.75
2023-03-19T08:20:58.182Z,99639.84
2023-03-19T08:25:59.790Z,99635.63
2023-03-19T08:31:13.111Z,99629.69
2023-03-19T08:36:15.516Z,99635.38
2023-03-19T08:41:17.114Z,99635.81
2023-03-19T08:46:19.002Z,99624.97
2023-03-19T08:51:20.982Z,99632.22
2023-03-19T08:56:22.661Z,99626.63
2023-03-19T09:01:24.500Z,99633.19
2023-03-19T09:06:26.540Z,99627.59
2023-03-19T09:11:28.201Z,99630.91
2023-03-19T09:16:31.346Z,99629.97
2023-03-19T09:21:32.975Z,99633.69
2023-03-19T09:26:34.745Z,99630.66
2023-03-19T09:31:37.453Z,99634.09
2023-03-19T09:36:39.172Z,99619.09
2023-03-19T09:42:00.163Z,99623.25
2023-03-19T09:47:12.908Z,99608.75
2023-03-19T09:52:44.047Z,99612.00
2023-03-19T09:57:47.682Z,99596.78
2023-03-19T10:02:59.186Z,99601.69
2023-03-19T10:08:32.081Z,99602.59
2023-03-19T10:13:40.231Z,99589.19
2023-03-19T10:18:48.060Z,99578.03
2023-03-19T10:24:08.054Z,99580.63
2023-03-19T10:29:14.648Z,99584.59
2023-03-19T10:34:35.106Z,99591.13
2023-03-19T10:39:38.670Z,99599.56
2023-03-19T10:44:58.165Z,99588.25
2023-03-19T10:49:59.766Z,99582.41
2023-03-19T10:55:03.518Z,99574.75
2023-03-19T11:00:27.102Z,99581.50
2023-03-19T11:05:31.952Z,99583.03
2023-03-19T11:10:36.018Z,99577.59
2023-03-19T11:15:38.985Z,99574.06
2023-03-19T11:20:41.889Z,99576.16
2023-03-19T11:25:52.147Z,99576.84
2023-03-19T11:31:15.604Z,99568.66
2023-03-19T11:36:31.107Z,99571.09
2023-03-19T11:42:00.347Z,99561.66
2023-03-19T11:47:17.802Z,99561.84
2023-03-19T11:52:50.250Z,99568.31
2023-03-19T11:58:16.066Z,99558.63
2023-03-19T12:03:37.195Z,99563.00
2023-03-19T12:09:02.121Z,99566.28
2023-03-19T12:14:32.154Z,99576.66
2023-03-19T12:19:51.836Z,99567.63
2023-03-19T12:25:18.924Z,99567.56
2023-03-19T12:30:46.989Z,99568.16
2023-03-19T12:35:52.440Z,99565.78
2023-03-19T12:41:00.102Z,99558.59
2023-03-19T12:46:19.330Z,99556.66
2023-03-19T12:51:26.722Z,99562.94
2023-03-19T12:56:52.322Z,99561.63
2023-03-19T13:02:00.918Z,99563.13
2023-03-19T13:07:28.849Z,99558.66
2023-03-19T13:12:34.331Z,99568.94
2023-03-19T13:17:41.582Z,99563.84
2023-03-19T13:22:47.598Z,99571.38
2023-03-19T13:27:54.370Z,99571.28
2023-03-19T13:33:13.001Z,99572.81
2023-03-19T13:38:15.634Z,99568.16
2023-03-19T13:43:30.677Z,99568.13
2023-03-19T13:48:32.251Z,99565.25
2023-03-19T13:53:52.061Z,99566.25
2023-03-19T13:59:27.912Z,99559.00
2023-03-19T14:04:31.265Z,99561.28
2023-03-19T14:09:44.952Z,99565.00
2023-03-19T14:15:07.325Z,99563.34
2023-03-19T14:20:12.813Z,99560.94
2023-03-19T14:25:20.305Z,99558.06
2023-03-19T14:30:37.856Z,99562.53
2023-03-19T14:35:45.077Z,99552.44
2023-03-19T14:40:51.446Z,99552.38
2023-03-19T14:46:00.956Z,99545.44
2023-03-19T14:51:08.594Z,99552.94
2023-03-19T14:56:15.858Z,99555.78
2023-03-19T15:01:19.127Z,99562.66
2023-03-19T15:06:21.122Z,99563.75
2023-03-19T15:12:01.290Z,99566.63
2023-03-19T15:17:32.198Z,99570.13
2023-03-19T15:22:34.711Z,99566.28
2023-03-19T15:27:36.737Z,99578.81
2023-03-19T15:32:56.307Z,99571.00
2023-03-19T15:38:07.018Z,99587.84
2023-03-19T15:43:12.874Z,99584.28
2023-03-19T15:48:27.277Z,99594.72
2023-03-19T15:53:32.385Z,99591.16
2023-03-19T15:58:40.111Z,99599.84
2023-03-19T16:03:45.477Z,99611.31
2023-03-19T16:08:49.783Z,99610.16
2023-03-19T16:14:17.228Z,99622.69
2023-03-19T16:19:58.131Z,99617.00
2023-03-19T16:25:02.040Z,99631.69
2023-03-19T16:30:13.777Z,99630.47
2023-03-19T16:35:19.935Z,99648.44
2023-03-19T16:40:21.494Z,99662.16
2023-03-19T16:45:27.534Z,99662.78
2023-03-19T16:50:33.807Z,99663.50
2023-03-19T16:55:36.337Z,99674.97
2023-03-19T17:00:38.286Z,99677.94
2023-03-19T17:05:39.923Z,99680.94
2023-03-19T17:10:49.739Z,99679.84
2023-03-19T17:15:51.618Z,99686.25
2023-03-19T17:21:10.794Z,99696.97
2023-03-19T17:26:21.833Z,99689.34
2023-03-19T17:31:29.111Z,99695.28
2023-03-19T17:36:31.048Z,99695.28
2023-03-19T17:41:35.727Z,99701.22
2023-03-19T17:46:49.930Z,99703.22
2023-03-19T17:51:51.723Z,99702.31
2023-03-19T17:56:54.585Z,99695.56
2023-03-19T18:01:56.318Z,99699.75
2023-03-19T18:06:57.963Z,99703.66
2023-03-19T18:11:59.652Z,99694.75
2023-03-19T18:17:01.453Z,99712.34
2023-03-19T18:22:12.620Z,99706.66
2023-03-19T18:27:14.691Z,99710.72
2023-03-19T18:32:23.426Z,99715.09
2023-03-19T18:37:25.472Z,99708.59
2023-03-19T18:42:28.173Z,99714.50
2023-03-19T18:47:30.621Z,99716.47
2023-03-19T18:52:32.227Z,99707.69
2023-03-19T18:57:36.252Z,99717.06
2023-03-19T19:02:37.882Z,99719.91
2023-03-19T19:07:39.479Z,99723.28
2023-03-19T19:12:44.471Z,99724.25
2023-03-19T19:17:46.893Z,99733.31
2023-03-19T19:22:50.674Z,99732.53
2023-03-19T19:28:01.969Z,99736.88
2023-03-19T19:33:04.665Z,99732.88
2023-03-19T19:38:06.756Z,99736.22
2023-03-19T19:43:18.410Z,99740.88
2023-03-19T19:48:29.121Z,99745.75
2023-03-19T19:53:31.025Z,99750.16
2023-03-19T19:58:34.083Z,99741.72
2023-03-19T20:03:35.795Z,99745.28
2023-03-19T20:08:38.064Z,99750.69
2023-03-19T20:13:40.565Z,99754.91
2023-03-19T20:18:43.648Z,99750.50
2023-03-19T20:23:45.692Z,99757.59
2023-03-19T20:28:48.219Z,99760.97
2023-03-19T20:33:49.835Z,99758.28
2023-03-19T20:38:52.604Z,99759.66
2023-03-19T20:43:55.754Z,99754.44
2023-03-19T20:48:57.391Z,99771.28
2023-03-19T20:53:59.075Z,99771.94
2023-03-19T20:59:00.690Z,99768.44
2023-03-19T21:04:02.308Z,99766.34
2023-03-19T21:09:04.382Z,99768.06
2023-03-19T21:14:06.548Z,99765.22
2023-03-19T21:19:08.137Z,99770.44
2023-03-19T21:24:16.486Z,99769.94
2023-03-19T21:29:29.145Z,99758.03
2023-03-19T21:34:31.010Z,99757.50
2023-03-19T21:39:32.634Z,99756.47
2023-03-19T21:44:34.312Z,99761.13
2023-03-19T21:49:35.906Z,99766.00
2023-03-19T21:54:37.493Z,99763.44
2023-03-19T21:59:40.347Z,99761.94
2023-03-19T22:04:41.981Z,99757.41
2023-03-19T22:09:45.346Z,99764.59
2023-03-19T22:14:46.974Z,99760.63
2023-03-19T22:19:48.594Z,99763.81
2023-03-19T22:24:50.339Z,99766.81
2023-03-19T22:29:51.955Z,99772.19
2023-03-19T22:34:53.564Z,99773.59
2023-03-19T22:39:55.698Z,99772.25
2023-03-19T22:44:57.541Z,99771.75
2023-03-19T22:49:59.451Z,99778.13
2023-03-19T22:55:01.045Z,99773.97
2023-03-19T23:00:12.070Z,99768.72
2023-03-19T23:05:25.262Z,99768.41
2023-03-19T23:10:29.881Z,99764.66
2023-03-19T23:15:31.476Z,99769.31
2023-03-19T23:20:33.827Z,99761.78
2023-03-19T23:25:36.545Z,99764.31
2023-03-19T23:30:41.445Z,99762.16
2023-03-19T23:35:43.764Z,99763.69
2023-03-19T23:40:46.294Z,99763.00
2023-03-19T23:45:50.402Z,99763.03
2023-03-19T23:50:52.597Z,99756.63
2023-03-19T23:55:59.590Z,99758.81
